Time;durP1;ratioP1;P1;durP2;ratioP2;P2;SDS_P1;SDS_P2;PMS_P1;PMS_P2;Temp;Humidity;BMP_temperature;BMP_pressure;BME280_temperature;BME280_humidity;BME280_pressure;Samples;Min_cycle;Max_cycle;Signal;HPM_P1;HPM_P2
2022/08/03 00:02:23;;;;;;;12.05;5.85;;;;;;;29.77;57.65;100762.78;4957820;28;71155;-28
2022/08/03 00:04:54;;;;;;;8.90;4.90;;;;;;;29.79;57.63;100768.81;5018751;28;66234;-29
2022/08/03 00:07:29;;;;;;;6.90;5.93;;;;;;;29.86;58.84;100767.94;5033310;28;43214;-32
2022/08/03 00:10:00;;;;;;;8.27;7.13;;;;;;;29.66;62.79;100733.72;4971506;28;65532;-32
2022/08/03 00:12:31;;;;;;;9.73;8.80;;;;;;;29.99;65.52;100781.41;4956521;28;69805;-31
2022/08/03 00:15:04;;;;;;;37.42;10.82;;;;;;;30.03;69.60;100782.59;4955430;28;65270;-33
2022/08/03 00:17:45;;;;;;;14.27;11.18;;;;;;;30.04;71.36;100789.69;4978183;28;69773;-31
2022/08/03 00:20:22;;;;;;;15.18;10.07;;;;;;;30.08;72.18;100790.09;4958431;28;65755;-31
2022/08/03 00:22:54;;;;;;;14.32;11.38;;;;;;;30.04;72.67;100789.69;4953698;28;70326;-31
2022/08/03 00:25:26;;;;;;;10.20;9.15;;;;;;;30.11;73.24;100795.88;4950666;28;66449;-33
2022/08/03 00:27:57;;;;;;;11.25;9.85;;;;;;;30.15;72.52;100797.13;4956424;28;69348;-34
2022/08/03 00:30:28;;;;;;;10.67;9.17;;;;;;;30.14;73.69;100784.63;4958233;28;66013;-31
2022/08/03 00:33:00;;;;;;;11.27;9.83;;;;;;;30.23;73.33;100788.78;4955964;28;70732;-31
2022/08/03 00:35:32;;;;;;;11.90;9.25;;;;;;;30.30;72.88;100788.72;4956283;28;66012;-32
2022/08/03 00:38:20;;;;;;;9.02;8.02;;;;;;;29.59;71.98;100659.94;4955217;28;70030;-32
2022/08/03 00:40:51;;;;;;;;;;;;;;;30.11;73.34;100792.34;4957203;28;65711;-33
2022/08/03 00:43:26;;;;;;;9.93;7.88;;;;;;;30.42;72.44;100791.53;4956087;28;70283;-31
2022/08/03 00:45:58;;;;;;;7.82;7.32;;;;;;;30.44;71.93;100794.88;4952152;28;65709;-31
2022/08/03 00:48:30;;;;;;;7.75;7.05;;;;;;;30.55;68.77;100791.47;4952963;28;70212;-31
2022/08/03 00:51:02;;;;;;;10.05;6.97;;;;;;;30.61;68.26;100795.16;4954561;28;65422;-30
2022/08/03 00:53:36;;;;;;;6.75;6.15;;;;;;;30.69;67.84;100793.00;4952794;28;69690;-31
2022/08/03 00:56:07;;;;;;;9.55;6.13;;;;;;;30.76;67.54;100792.09;4969560;28;66379;-32
2022/08/03 00:58:38;;;;;;;6.93;6.32;;;;;;;30.82;67.21;100802.09;4953166;28;70103;-30
2022/08/03 01:01:11;;;;;;;6.53;6.13;;;;;;;30.87;66.94;100805.81;4948498;28;66188;-31
2022/08/03 01:03:42;;;;;;;6.60;6.00;;;;;;;30.77;67.09;100780.25;4958487;28;69388;-30
2022/08/03 01:06:23;;;;;;;6.50;5.90;;;;;;;30.62;67.19;100754.34;4951215;28;66177;-30
2022/08/03 01:09:21;;;;;;;6.22;5.80;;;;;;;30.98;68.10;100815.09;4947288;28;69349;-30
2022/08/03 01:12:28;;;;;;;6.35;5.80;;;;;;;31.10;66.55;100815.19;4951860;28;65740;-30
2022/08/03 01:15:39;;;;;;;7.18;6.55;;;;;;;30.84;67.61;100794.56;4973704;28;69690;-31
2022/08/03 01:18:39;;;;;;;6.90;6.30;;;;;;;30.92;67.22;100802.41;4952204;28;66378;-32
2022/08/03 01:21:26;;;;;;;9.18;6.78;;;;;;;31.22;66.62;100818.78;4952817;28;69748;-30
2022/08/03 01:24:33;;;;;;;7.47;5.68;;;;;;;31.19;66.38;100818.44;4977469;28;66697;-30
2022/08/03 01:27:27;;;;;;;6.60;6.18;;;;;;;31.31;65.61;100830.16;4949280;28;70520;-31
2022/08/03 01:30:00;;;;;;;6.75;6.25;;;;;;;30.99;65.14;100778.81;4964092;28;66583;-30
2022/08/03 01:33:06;;;;;;;6.10;5.55;;;;;;;31.26;65.75;100816.47;5001089;28;70191;-30
2022/08/03 01:35:50;;;;;;;6.65;6.25;;;;;;;31.38;65.26;100834.50;4954744;28;66215;-31
2022/08/03 01:38:26;;;;;;;8.38;5.45;;;;;;;31.37;64.71;100821.16;4955431;28;70110;-31
2022/08/03 01:41:02;;;;;;;6.22;5.68;;;;;;;31.48;64.58;100844.84;5016182;28;65906;-30
2022/08/03 01:43:34;;;;;;;6.38;5.40;;;;;;;31.44;64.29;100837.38;4957740;28;70638;-30
2022/08/03 01:46:27;;;;;;;6.43;5.82;;;;;;;31.51;64.55;100849.81;4965245;28;66290;-31
2022/08/03 01:49:00;;;;;;;6.57;6.00;;;;;;;31.23;64.01;100792.53;4953607;28;70514;-32
2022/08/03 01:51:41;;;;;;;6.00;5.50;;;;;;;31.25;64.05;100795.84;4954250;28;66363;-31
2022/08/03 01:54:36;;;;;;;5.95;5.55;;;;;;;31.57;64.29;100851.63;4951946;28;70033;-31
2022/08/03 01:57:10;;;;;;;6.63;5.80;;;;;;;31.31;63.99;100800.34;4954836;28;66425;-30
2022/08/03 01:59:43;;;;;;;6.10;5.50;;;;;;;31.67;63.98;100847.53;4958130;28;70359;-30
2022/08/03 02:02:17;;;;;;;5.80;5.40;;;;;;;31.72;64.29;100850.41;4953544;28;65523;-30
2022/08/03 02:05:06;;;;;;;5.63;5.22;;;;;;;31.52;63.56;100813.50;4955179;28;69717;-29
2022/08/03 02:07:41;;;;;;;5.65;5.13;;;;;;;31.34;63.86;100789.06;4958108;28;66816;-30
2022/08/03 02:10:15;;;;;;;5.32;4.88;;;;;;;31.78;63.31;100850.31;4954108;28;69217;-30
2022/08/03 02:13:07;;;;;;;5.63;4.90;;;;;;;31.51;63.51;100801.00;4975226;28;66949;-30
2022/08/03 02:15:40;;;;;;;8.10;5.10;;;;;;;31.85;63.63;100850.25;4973663;28;69212;-31
2022/08/03 02:18:13;;;;;;;5.25;4.85;;;;;;;31.78;63.12;100838.63;4951909;28;66461;-32
2022/08/03 02:20:45;;;;;;;6.00;5.40;;;;;;;31.88;63.36;100849.78;4948129;28;70113;-31
2022/08/03 02:23:18;;;;;;;5.55;5.15;;;;;;;31.91;63.02;100843.94;4947770;28;66090;-30
2022/08/03 02:25:55;;;;;;;5.55;5.05;;;;;;;31.53;63.13;100766.34;4952387;28;69279;-32
2022/08/03 02:28:42;;;;;;;5.20;4.80;;;;;;;31.76;63.15;100819.03;4952846;28;65208;-31
2022/08/03 02:31:18;;;;;;;6.63;5.25;;;;;;;31.58;62.88;100769.22;4954819;28;69576;-32
2022/08/03 02:33:56;;;;;;;4.72;4.32;;;;;;;31.61;62.92;100782.31;4954403;28;66678;-31
2022/08/03 02:36:36;;;;;;;4.95;4.55;;;;;;;31.86;62.57;100824.78;4955175;28;70302;-31
2022/08/03 02:39:10;;;;;;;4.72;4.43;;;;;;;32.07;62.79;100857.91;4954990;28;65835;-31
2022/08/03 02:41:48;;;;;;;5.32;4.38;;;;;;;32.09;62.61;100859.34;4952461;28;70346;-31
2022/08/03 02:44:24;;;;;;;5.68;4.30;;;;;;;32.12;62.26;100860.78;4963867;28;66297;-31
2022/08/03 02:47:01;;;;;;;5.47;4.97;;;;;;;31.96;62.24;100835.13;4950368;28;69924;-32
2022/08/03 02:49:34;;;;;;;5.97;5.07;;;;;;;32.08;62.12;100846.03;4965340;28;65334;-31
2022/08/03 02:52:23;;;;;;;5.00;4.50;;;;;;;32.08;62.18;100844.13;4953071;28;70152;-30
2022/08/03 02:54:58;;;;;;;5.63;4.88;;;;;;;31.93;62.29;100820.13;4967790;28;66535;-33
2022/08/03 02:57:33;;;;;;;4.40;4.10;;;;;;;31.77;62.04;100793.59;4955381;28;70718;-31
2022/08/03 03:00:07;;;;;;;4.68;4.28;;;;;;;32.24;62.01;100869.81;4954969;28;66341;-31
2022/08/03 03:02:40;;;;;;;6.72;4.00;;;;;;;32.23;62.02;100858.13;5012675;28;69886;-32
2022/08/03 03:05:14;;;;;;;4.25;3.95;;;;;;;32.28;61.81;100871.00;4957323;28;65538;-31
2022/08/03 03:08:06;;;;;;;4.00;3.70;;;;;;;32.17;61.68;100853.59;4965816;28;70050;-31
2022/08/03 03:10:50;;;;;;;4.35;4.05;;;;;;;32.32;61.89;100877.63;4955228;28;66556;-32
2022/08/03 03:13:25;;;;;;;4.50;3.90;;;;;;;32.34;61.58;100886.34;4967316;28;70428;-30
2022/08/03 03:16:01;;;;;;;10.90;3.97;;;;;;;32.37;61.69;100891.31;4954606;28;65500;-31
2022/08/03 03:18:34;;;;;;;4.07;3.70;;;;;;;32.35;61.54;100873.63;4952413;28;69507;-31
2022/08/03 03:21:09;;;;;;;3.58;3.20;;;;;;;31.89;61.36;100797.19;4973442;28;66185;-33
2022/08/03 03:23:41;;;;;;;4.22;3.92;;;;;;;32.44;61.42;100889.34;4951682;28;70158;-32
2022/08/03 03:26:15;;;;;;;3.88;3.53;;;;;;;32.12;61.15;100828.22;4986501;28;66199;-33
2022/08/03 03:28:47;;;;;;;4.03;3.67;;;;;;;32.46;60.98;100884.56;5017999;28;69362;-31
2022/08/03 03:31:18;;;;;;;3.88;3.47;;;;;;;32.49;61.30;100894.94;4952251;28;65824;-31
2022/08/03 03:33:50;;;;;;;5.05;3.42;;;;;;;32.51;61.08;100902.03;4953141;28;69867;-32
2022/08/03 03:36:21;;;;;;;3.33;3.03;;;;;;;32.52;60.91;100892.84;4961091;28;66245;-32
2022/08/03 03:38:53;;;;;;;3.38;3.08;;;;;;;32.51;60.91;100891.16;4971508;28;69115;-32
2022/08/03 03:41:25;;;;;;;3.72;3.40;;;;;;;32.56;61.05;100888.59;4954320;28;65506;-30
2022/08/03 03:44:02;;;;;;;9.30;3.42;;;;;;;32.52;61.02;100885.53;4951914;28;69721;-32
2022/08/03 03:46:34;;;;;;;4.05;3.50;;;;;;;32.55;60.76;100881.50;4953568;28;65079;-31
2022/08/03 03:49:06;;;;;;;3.80;3.35;;;;;;;32.57;60.81;100882.09;4952351;28;69249;-32
2022/08/03 03:51:38;;;;;;;3.63;3.33;;;;;;;32.59;60.55;100877.25;4979742;28;66105;-32
2022/08/03 03:54:09;;;;;;;6.15;3.80;;;;;;;32.58;61.07;100871.00;4954598;28;69993;-30
2022/08/03 03:56:40;;;;;;;3.78;3.15;;;;;;;32.60;60.49;100873.50;4954817;28;66443;-31
2022/08/03 03:59:12;;;;;;;3.70;3.10;;;;;;;32.60;60.71;100863.47;4958513;28;70219;-31
2022/08/03 04:01:44;;;;;;;5.13;3.67;;;;;;;32.57;60.65;100842.22;4950254;28;64974;-30
2022/08/03 04:13:11;;;;;;;10.68;3.10;;;;;;;32.72;60.14;100839.03;4953983;28;66550;-30
2022/08/03 04:15:44;;;;;;;5.65;3.25;;;;;;;32.74;60.54;100836.09;4951788;28;70069;-31
2022/08/03 04:18:17;;;;;;;5.32;3.65;;;;;;;32.37;60.27;100771.88;4948387;28;66421;-31
2022/08/03 04:20:51;;;;;;;5.35;3.20;;;;;;;32.36;60.28;100759.38;5017764;28;69669;-32
2022/08/03 04:23:26;;;;;;;3.95;3.00;;;;;;;32.72;60.26;100811.88;4954406;28;65396;-31
2022/08/03 04:26:00;;;;;;;6.43;3.17;;;;;;;32.37;60.45;100738.47;4955729;28;69576;-31
2022/08/03 04:28:33;;;;;;;4.15;2.97;;;;;;;32.80;60.29;100808.00;4949137;28;65381;-30
2022/08/03 04:31:07;;;;;;;2.53;2.35;;;;;;;32.44;60.13;100740.03;4955579;28;68851;-30
2022/08/03 04:33:40;;;;;;;3.45;3.25;;;;;;;32.82;60.15;100798.53;4955863;28;66882;-32
2022/08/03 04:36:16;;;;;;;3.13;2.90;;;;;;;32.48;59.89;100726.81;4955078;28;70330;-34
2022/08/03 04:39:06;;;;;;;4.88;3.05;;;;;;;32.72;60.04;100776.56;4951193;28;66164;-31
2022/08/03 04:41:39;;;;;;;2.92;2.72;;;;;;;32.67;60.07;100749.28;4944745;28;70419;-31
2022/08/03 04:44:31;;;;;;;;;;;;;;;32.54;60.97;100772.06;4955981;28;66584;-31
2022/08/03 04:47:02;;;;;;;3.28;2.70;;;;;;;32.85;60.15;100779.06;4955037;28;70145;-31
2022/08/03 04:49:37;;;;;;;3.40;2.97;;;;;;;32.78;60.19;100753.88;4952093;28;65271;-32
2022/08/03 04:52:09;;;;;;;3.20;2.90;;;;;;;32.92;59.92;100763.44;4955329;28;70047;-32
2022/08/03 04:54:42;;;;;;;3.10;2.80;;;;;;;32.71;59.79;100717.88;4955675;28;65563;-31
2022/08/03 04:57:20;;;;;;;6.40;2.92;;;;;;;32.98;59.82;100755.41;4950452;28;69698;-32
2022/08/03 04:59:53;;;;;;;3.70;2.47;;;;;;;32.91;59.69;100748.22;4950794;28;65526;-31
2022/08/03 05:02:33;;;;;;;3.22;2.58;;;;;;;32.89;59.68;100736.75;4950377;28;69881;-31
2022/08/03 05:05:05;;;;;;;2.53;2.33;;;;;;;32.90;59.74;100721.28;4958162;28;67840;-32
2022/08/03 05:07:39;;;;;;;2.95;2.75;;;;;;;33.04;59.70;100744.47;4959128;28;70474;-33
2022/08/03 05:10:12;;;;;;;8.02;2.95;;;;;;;33.04;59.72;100730.03;4960851;28;66366;-31
2022/08/03 05:12:47;;;;;;;2.38;2.17;;;;;;;33.10;59.55;100726.38;4956994;28;70154;-31
2022/08/03 05:15:19;;;;;;;2.47;2.28;;;;;;;33.07;59.62;100715.97;4949390;28;66285;-31
2022/08/03 05:17:51;;;;;;;3.47;2.65;;;;;;;33.10;59.44;100713.59;4968570;28;70047;-31
2022/08/03 05:20:22;;;;;;;3.03;2.70;;;;;;;33.11;59.48;100712.53;4971147;28;66915;-33
2022/08/03 05:22:54;;;;;;;3.10;2.58;;;;;;;33.17;59.38;100712.66;4972037;28;70247;-31
2022/08/03 05:25:25;;;;;;;;;;;;;;;32.82;60.11;100698.03;4957596;28;65664;-32
2022/08/03 05:27:57;;;;;;;6.85;2.70;;;;;;;33.10;59.45;100677.47;5021424;28;70195;-31
2022/08/03 05:30:29;;;;;;;2.22;2.03;;;;;;;33.19;59.42;100686.88;4961848;28;66304;-33
2022/08/03 05:33:03;;;;;;;4.10;2.50;;;;;;;33.11;59.31;100660.06;4984272;28;70042;-32
2022/08/03 05:35:34;;;;;;;;;;;;;;;32.90;59.88;100678.66;4989359;28;66560;-30
2022/08/03 05:38:26;;;;;;;2.70;2.30;;;;;;;33.24;59.36;100667.97;4972484;28;70683;-31
2022/08/03 05:41:04;;;;;;;2.35;2.10;;;;;;;33.18;58.99;100657.22;4976859;28;65526;-32
2022/08/03 05:43:54;;;;;;;3.38;2.75;;;;;;;33.28;58.92;100662.84;5003100;28;69679;-31
2022/08/03 05:46:25;;;;;;;2.90;2.60;;;;;;;33.31;59.07;100659.66;4981541;28;66242;-31
2022/08/03 05:48:57;;;;;;;2.67;2.30;;;;;;;33.28;58.95;100651.97;5011679;28;69893;-30
2022/08/03 05:51:30;;;;;;;2.38;2.15;;;;;;;33.16;58.94;100627.56;4953640;28;65611;-31
2022/08/03 05:54:01;;;;;;;1.95;1.75;;;;;;;33.33;58.85;100643.94;4956775;28;70832;-32
2022/08/03 05:56:33;;;;;;;2.15;2.03;;;;;;;33.21;59.08;100611.38;4956076;28;65928;-32
2022/08/03 05:59:04;;;;;;;2.60;2.40;;;;;;;33.34;58.84;100621.91;4954987;28;69848;-33
2022/08/03 06:01:55;;;;;;;2.10;1.90;;;;;;;33.38;58.96;100625.81;4956459;28;65462;-32
2022/08/03 06:04:27;;;;;;;2.28;2.08;;;;;;;33.41;58.83;100607.38;5019827;28;70015;-32
2022/08/03 06:06:58;;;;;;;2.03;1.83;;;;;;;33.43;58.58;100602.50;4957824;28;65757;-32
2022/08/03 06:09:30;;;;;;;2.20;2.00;;;;;;;33.32;58.60;100575.16;4955951;28;69347;-31
2022/08/03 06:12:24;;;;;;;4.43;2.10;;;;;;;33.47;58.82;100590.91;4954938;28;66086;-31
2022/08/03 06:14:56;;;;;;;2.95;2.22;;;;;;;33.49;58.63;100580.59;4954159;28;70244;-32
2022/08/03 06:17:27;;;;;;;3.58;2.20;;;;;;;33.52;58.54;100579.28;4966847;28;66666;-31
2022/08/03 06:20:06;;;;;;;2.55;2.08;;;;;;;33.55;58.34;100566.06;4956650;28;70028;-30
2022/08/03 06:22:38;;;;;;;2.50;2.30;;;;;;;33.58;58.44;100564.75;4986399;28;66125;-31
2022/08/03 06:25:29;;;;;;;3.33;1.52;;;;;;;33.59;58.48;100563.66;4959186;28;70313;-31
2022/08/03 06:28:01;;;;;;;2.42;2.00;;;;;;;33.64;58.43;100562.94;4983367;28;65360;-32
2022/08/03 06:30:32;;;;;;;3.03;1.63;;;;;;;33.66;58.25;100566.22;4974653;28;69184;-31
2022/08/03 06:33:03;;;;;;;1.70;1.55;;;;;;;33.68;58.31;100550.47;4952521;28;66038;-35
2022/08/03 06:35:38;;;;;;;1.40;1.30;;;;;;;33.73;57.90;100559.53;4949588;28;70137;-32
2022/08/03 06:38:13;;;;;;;2.00;1.77;;;;;;;33.64;57.83;100535.72;4947409;28;65603;-32
2022/08/03 06:40:44;;;;;;;2.25;2.05;;;;;;;33.75;57.98;100545.69;5014672;28;69962;-31
2022/08/03 06:43:19;;;;;;;1.65;1.55;;;;;;;33.81;57.91;100542.78;4955771;28;66415;-31
2022/08/03 06:45:50;;;;;;;2.03;1.83;;;;;;;33.83;57.85;100539.03;4948070;28;69989;-31
2022/08/03 06:48:22;;;;;;;1.85;1.67;;;;;;;33.68;57.70;100505.03;4957045;28;66111;-32
2022/08/03 06:50:53;;;;;;;2.17;1.98;;;;;;;33.81;57.68;100523.75;4956693;28;69971;-31
2022/08/03 06:53:25;;;;;;;3.00;1.70;;;;;;;33.89;58.00;100518.97;4959968;28;66201;-33
2022/08/03 06:55:57;;;;;;;3.25;1.65;;;;;;;33.89;57.62;100514.34;4954349;28;69337;-31
2022/08/03 06:58:27;;;;;;;;;;;;;;;33.62;58.17;100500.59;4954077;28;65832;-31
2022/08/03 07:00:59;;;;;;;1.55;1.45;;;;;;;33.92;57.82;100504.88;4958817;28;70350;-32
2022/08/03 07:03:31;;;;;;;3.55;1.92;;;;;;;33.96;57.59;100506.00;4954925;28;66682;-31
2022/08/03 07:06:03;;;;;;;4.00;1.67;;;;;;;33.97;57.66;100511.19;4952568;28;69061;-30
2022/08/03 07:08:34;;;;;;;2.60;1.80;;;;;;;33.99;57.58;100505.50;4955972;28;65178;-31
2022/08/03 07:11:06;;;;;;;1.80;1.63;;;;;;;34.02;57.45;100499.56;4953482;28;70060;-31
2022/08/03 07:13:40;;;;;;;1.88;1.40;;;;;;;34.07;57.48;100486.03;4957192;28;66169;-31
2022/08/03 07:16:11;;;;;;;1.65;1.55;;;;;;;34.10;57.45;100477.41;4952895;28;69415;-31
2022/08/03 07:18:42;;;;;;;1.67;1.58;;;;;;;34.07;57.13;100469.72;4956875;28;66211;-31
2022/08/03 07:21:15;;;;;;;2.90;1.63;;;;;;;34.08;57.27;100468.66;4966124;28;70015;-30
2022/08/03 07:23:47;;;;;;;2.38;1.60;;;;;;;34.15;56.84;100472.00;4951912;28;66570;-32
2022/08/03 07:26:18;;;;;;;2.65;1.75;;;;;;;34.18;57.27;100476.13;4966217;28;71254;-30
2022/08/03 07:28:49;;;;;;;4.35;2.08;;;;;;;34.22;57.34;100464.47;4955227;28;65896;-32
2022/08/03 07:31:21;;;;;;;1.67;1.50;;;;;;;34.23;57.03;100460.69;4955645;28;70325;-31
2022/08/03 07:33:52;;;;;;;6.95;1.98;;;;;;;34.26;56.85;100457.44;4982217;28;65991;-32
2022/08/03 07:36:24;;;;;;;7.05;1.48;;;;;;;34.29;56.78;100458.03;4974891;28;69428;-31
2022/08/03 07:38:56;;;;;;;1.80;1.42;;;;;;;34.28;56.67;100456.38;4973234;28;65293;-32
2022/08/03 07:41:28;;;;;;;2.25;2.05;;;;;;;34.34;56.67;100458.09;4970500;28;70049;-31
2022/08/03 07:43:59;;;;;;;1.73;1.58;;;;;;;34.00;56.60;100406.47;4972791;28;66129;-31
2022/08/03 07:46:32;;;;;;;9.13;1.90;;;;;;;34.36;56.71;100455.94;4949462;28;70120;-31
2022/08/03 07:49:04;;;;;;;7.88;2.05;;;;;;;34.39;56.79;100452.72;4947300;28;66109;-31
2022/08/03 07:51:36;;;;;;;5.95;1.77;;;;;;;34.32;56.66;100443.91;4952455;28;70107;-32
2022/08/03 07:54:08;;;;;;;4.95;1.63;;;;;;;34.41;56.91;100469.63;4954177;28;66401;-32
2022/08/03 07:56:41;;;;;;;2.63;1.60;;;;;;;34.42;56.55;100463.91;4953803;28;70450;-30
2022/08/03 07:59:12;;;;;;;3.72;1.70;;;;;;;34.40;56.52;100457.06;4955572;28;66786;-31
2022/08/03 08:01:44;;;;;;;3.22;1.63;;;;;;;34.45;56.74;100462.56;4960596;28;70238;-32
2022/08/03 08:04:15;;;;;;;;;;;;;;;34.19;56.94;100462.28;4952459;28;65925;-30
2022/08/03 08:06:47;;;;;;;3.17;1.53;;;;;;;34.46;56.61;100465.06;4955010;28;70042;-32
2022/08/03 08:09:18;;;;;;;5.10;1.52;;;;;;;34.49;56.60;100460.97;4953776;28;65459;-31
2022/08/03 08:11:49;;;;;;;8.93;1.80;;;;;;;34.51;56.40;100453.38;4947825;28;69232;-31
2022/08/03 08:14:21;;;;;;;2.75;1.58;;;;;;;34.55;56.48;100456.41;4950154;28;65308;-31
2022/08/03 08:16:52;;;;;;;3.20;1.60;;;;;;;34.56;56.43;100458.91;4954861;28;70003;-31
2022/08/03 08:19:23;;;;;;;2.75;1.60;;;;;;;34.57;56.11;100446.94;4948326;28;65123;-30
2022/08/03 08:21:59;;;;;;;2.60;1.95;;;;;;;34.59;56.24;100455.69;4953980;28;70183;-31
2022/08/03 08:24:32;;;;;;;5.63;1.48;;;;;;;34.61;56.37;100439.91;4949432;28;65810;-32
2022/08/03 08:27:07;;;;;;;2.70;2.00;;;;;;;34.64;56.27;100442.13;4956397;28;70582;-32
2022/08/03 08:29:38;;;;;;;2.80;1.70;;;;;;;34.65;56.29;100443.75;4954479;28;65714;-31
2022/08/03 08:32:24;;;;;;;4.18;1.77;;;;;;;34.66;56.26;100423.63;4946411;28;70417;-31
2022/08/03 08:34:56;;;;;;;3.25;2.00;;;;;;;34.66;55.80;100423.63;4969385;28;66116;-31
2022/08/03 08:37:28;;;;;;;3.88;1.60;;;;;;;34.68;56.01;100412.44;4945093;28;69739;-31
2022/08/03 08:39:59;;;;;;;2.58;1.92;;;;;;;34.67;55.98;100425.25;4952913;28;65211;-31
2022/08/03 08:42:31;;;;;;;6.32;2.33;;;;;;;34.70;56.26;100435.63;4952640;28;69566;-30
2022/08/03 08:45:08;;;;;;;1.45;1.35;;;;;;;34.71;55.65;100433.72;4946479;28;65569;-31
2022/08/03 08:47:44;;;;;;;7.40;2.33;;;;;;;34.35;55.79;100375.31;4967282;28;69265;-31
2022/08/03 08:50:21;;;;;;;5.22;2.70;;;;;;;34.70;56.29;100454.72;5004807;28;65929;-31
2022/08/03 08:53:02;;;;;;;3.17;2.47;;;;;;;34.63;55.80;100456.81;4970588;28;70193;-31
2022/08/03 08:55:39;;;;;;;8.07;2.78;;;;;;;34.72;56.44;100472.72;4947030;28;66584;-30
2022/08/03 08:58:33;;;;;;;7.75;2.17;;;;;;;34.41;56.56;100426.06;4960394;28;71715;-31
2022/08/03 09:01:05;;;;;;;10.60;2.63;;;;;;;34.74;56.24;100478.72;5023016;28;66248;-32
2022/08/03 09:03:36;;;;;;;12.75;3.47;;;;;;;34.72;56.16;100475.44;4965087;28;70233;-31
2022/08/03 09:06:07;;;;;;;10.13;2.60;;;;;;;34.73;56.62;100482.53;4956288;28;66578;-31
2022/08/03 09:08:39;;;;;;;10.57;3.40;;;;;;;34.71;56.26;100485.50;4957886;28;70080;-31
2022/08/03 09:11:11;;;;;;;7.53;2.67;;;;;;;34.69;56.30;100493.13;4961196;28;66779;-31
2022/08/03 09:13:43;;;;;;;14.27;3.45;;;;;;;34.70;56.48;100500.19;4956809;28;69743;-31
2022/08/03 09:16:19;;;;;;;15.60;2.95;;;;;;;34.49;56.62;100471.88;4960792;28;65784;-31
2022/08/03 09:18:53;;;;;;;10.77;3.33;;;;;;;34.50;56.29;100489.88;4956902;28;70294;-32
2022/08/03 09:21:31;;;;;;;12.55;3.78;;;;;;;34.68;56.46;100541.31;5034315;28;66776;-30
2022/08/03 09:24:06;;;;;;;13.32;4.20;;;;;;;34.30;56.67;100479.56;4957705;28;69804;-31
2022/08/03 09:26:51;;;;;;;32.55;4.35;;;;;;;34.28;56.66;100475.44;4952501;28;66809;-31
2022/08/03 09:29:22;;;;;;;28.92;4.70;;;;;;;34.64;56.94;100539.38;4961783;28;69329;-32
2022/08/03 09:32:03;;;;;;;26.35;4.55;;;;;;;34.26;56.81;100483.84;4962256;28;65938;-31
2022/08/03 09:34:35;;;;;;;23.40;4.82;;;;;;;34.58;57.06;100545.84;5021477;28;69033;-31
2022/08/03 09:37:14;;;;;;;20.73;4.47;;;;;;;34.57;56.60;100572.22;4962283;28;66710;-32
2022/08/03 09:39:47;;;;;;;17.42;4.55;;;;;;;34.54;57.17;100550.09;5009651;28;70453;-31
2022/08/03 09:42:21;;;;;;;14.60;4.90;;;;;;;34.55;57.02;100555.31;4968297;28;65338;-32
2022/08/03 09:44:53;;;;;;;17.95;4.28;;;;;;;34.45;57.00;100541.53;4950277;28;69907;-30
2022/08/03 09:47:29;;;;;;;8.55;3.63;;;;;;;33.85;56.72;100456.09;4981533;28;66746;-29
2022/08/03 09:50:06;;;;;;;7.70;3.92;;;;;;;34.42;57.40;100542.06;4972706;28;69673;-32
2022/08/03 09:52:40;;;;;;;13.65;4.30;;;;;;;33.85;57.07;100466.97;4979039;28;66865;-32
2022/08/03 09:55:22;;;;;;;9.65;4.80;;;;;;;34.50;57.32;100566.13;4957538;28;70166;-30
2022/08/03 09:58:13;;;;;;;8.50;3.70;;;;;;;34.45;57.43;100560.59;4955405;28;66141;-31
2022/08/03 10:00:56;;;;;;;12.13;4.13;;;;;;;34.39;57.87;100586.13;5016676;28;69020;-30
2022/08/03 10:03:30;;;;;;;8.98;4.15;;;;;;;34.14;57.91;100535.69;4955271;28;65706;-31
2022/08/03 10:06:18;;;;;;;5.45;3.65;;;;;;;34.23;57.91;100572.28;4952692;28;69187;-30
2022/08/03 10:09:08;;;;;;;5.70;3.45;;;;;;;34.28;58.23;100601.50;4956940;28;66366;-31
2022/08/03 10:11:41;;;;;;;10.82;3.13;;;;;;;34.35;57.90;100598.59;5036679;28;69988;-31
2022/08/03 10:14:21;;;;;;;6.78;3.42;;;;;;;34.33;58.03;100587.16;4963119;28;65586;-32
2022/08/03 10:16:52;;;;;;;3.90;3.45;;;;;;;34.06;60.30;100592.47;4955115;28;70171;-32
2022/08/03 10:19:24;;;;;;;7.05;4.18;;;;;;;33.81;61.51;100597.22;4969130;28;65786;-30
2022/08/03 10:21:59;;;;;;;13.13;4.47;;;;;;;33.61;61.30;100602.31;4956270;28;70356;-31
2022/08/03 10:24:34;;;;;;;10.05;3.53;;;;;;;33.41;62.42;100612.81;4954808;28;66390;-31
2022/08/03 10:27:07;;;;;;;5.00;4.35;;;;;;;32.90;63.12;100548.25;4957070;28;70054;-31
2022/08/03 10:29:47;;;;;;;5.00;3.90;;;;;;;33.24;63.72;100613.59;4958654;28;66356;-31
2022/08/03 10:32:29;;;;;;;6.25;5.03;;;;;;;32.78;64.65;100539.28;4959037;28;70631;-31
2022/08/03 10:35:06;;;;;;;11.20;4.57;;;;;;;33.12;65.00;100597.31;4959834;28;66483;-30
2022/08/03 10:37:59;;;;;;;6.45;5.00;;;;;;;33.09;66.17;100583.38;5024514;28;70537;-33
2022/08/03 10:40:32;;;;;;;13.63;4.90;;;;;;;33.07;66.75;100569.22;5036411;28;66675;-29
2022/08/03 10:44:19;;;;;;;8.00;5.45;;;;;;;32.92;67.34;100564.28;4954864;28;70003;-31
2022/08/03 10:46:51;;;;;;;5.53;4.93;;;;;;;32.98;67.31;100584.22;4945635;28;66265;-32
2022/08/03 10:49:24;;;;;;;7.03;5.00;;;;;;;32.96;68.13;100605.38;4950132;28;69476;-32
2022/08/03 10:52:05;;;;;;;11.32;5.90;;;;;;;33.08;66.63;100641.53;4983397;28;65517;-31
2022/08/03 10:57:46;;;;;;;4.97;4.57;;;;;;;32.94;65.16;100614.59;4989063;28;66590;-31
2022/08/03 11:00:26;;;;;;;5.85;5.10;;;;;;;33.30;65.00;100664.25;4947851;28;69251;-31
2022/08/03 11:03:09;;;;;;;7.57;5.15;;;;;;;32.98;64.87;100609.50;4949603;28;65418;-33
2022/08/03 11:05:53;;;;;;;5.25;4.85;;;;;;;33.42;64.83;100679.72;5011171;28;70049;-31
2022/08/03 11:08:29;;;;;;;5.60;5.00;;;;;;;33.49;64.05;100685.81;4951918;28;64805;-35
2022/08/03 11:11:27;;;;;;;7.75;5.20;;;;;;;33.41;65.10;100688.94;4953700;28;70464;-33
2022/08/03 11:14:07;;;;;;;4.72;4.35;;;;;;;33.52;64.46;100688.06;4954053;28;65245;-32
2022/08/03 11:16:41;;;;;;;6.07;5.45;;;;;;;33.28;64.06;100638.38;4994979;28;69273;-32
2022/08/03 11:19:16;;;;;;;5.50;5.00;;;;;;;33.55;64.47;100680.28;5007907;28;66730;-31
2022/08/03 11:21:52;;;;;;;5.30;4.97;;;;;;;33.57;63.83;100671.84;5012443;28;69060;-31
2022/08/03 11:24:39;;;;;;;5.93;5.43;;;;;;;33.53;64.34;100676.13;5011187;28;65718;-32
2022/08/03 11:27:19;;;;;;;5.80;5.20;;;;;;;33.55;64.16;100666.69;5012829;28;69627;-32
2022/08/03 11:30:08;;;;;;;6.25;5.60;;;;;;;33.60;64.56;100671.38;4950396;28;65508;-30
2022/08/03 11:32:39;;;;;;;5.68;5.18;;;;;;;33.58;64.36;100674.34;4952970;28;70193;-30
2022/08/03 11:35:24;;;;;;;6.63;5.90;;;;;;;33.62;64.19;100695.59;4954108;28;66250;-31
2022/08/03 11:38:04;;;;;;;7.18;6.25;;;;;;;33.61;64.31;100689.34;4949933;28;69490;-30
2022/08/03 11:40:48;;;;;;;5.88;5.38;;;;;;;33.61;64.61;100705.66;4954923;28;66541;-32
2022/08/03 11:43:34;;;;;;;6.20;5.65;;;;;;;33.64;64.30;100707.91;4952781;28;69325;-30
2022/08/03 11:46:06;;;;;;;8.30;5.90;;;;;;;33.62;64.51;100712.75;5005944;28;64172;-31
2022/08/03 11:48:43;;;;;;;8.65;6.28;;;;;;;33.43;66.88;100697.66;4950315;28;69446;-33
2022/08/03 11:51:23;;;;;;;6.60;5.97;;;;;;;33.23;68.50;100704.34;5018282;28;65174;-33
2022/08/03 11:54:06;;;;;;;6.28;5.78;;;;;;;32.69;70.47;100660.25;4956500;28;70419;-33
2022/08/03 11:56:44;;;;;;;7.60;6.65;;;;;;;32.55;70.89;100665.09;5029263;28;65275;-31
2022/08/03 11:59:17;;;;;;;8.05;6.95;;;;;;;32.85;71.30;100740.19;5007728;28;69580;-33
2022/08/03 12:02:05;;;;;;;12.35;6.88;;;;;;;32.78;71.84;100734.88;4955965;28;66116;-33
2022/08/03 12:05:00;;;;;;;7.15;6.47;;;;;;;32.63;72.52;100737.25;4955476;28;69201;-34
2022/08/03 12:07:31;;;;;;;7.38;6.78;;;;;;;32.69;72.49;100753.41;4958713;28;66233;-33
2022/08/03 12:10:24;;;;;;;8.70;6.50;;;;;;;32.61;72.77;100751.03;4957399;28;70117;-33
2022/08/03 12:12:58;;;;;;;9.60;6.88;;;;;;;32.63;72.83;100758.97;4954314;28;66047;-36
2022/08/03 12:15:35;;;;;;;8.45;6.85;;;;;;;32.54;72.93;100754.94;4975269;28;70014;-33
2022/08/03 12:18:17;;;;;;;7.40;6.70;;;;;;;32.51;73.57;100777.94;4959161;28;66506;-34
2022/08/03 12:20:50;;;;;;;7.68;6.97;;;;;;;32.55;73.18;100772.91;4957708;28;70030;-34